sensor_id;sensor_type;location;lat;lon;timestamp;temperature;humidity
7196;DHT22;3639;51.308;5.624;2022-12-29T00:01:54;10.50;99.90
7196;DHT22;3639;51.308;5.624;2022-12-29T00:04:20;10.40;99.90
7196;DHT22;3639;51.308;5.624;2022-12-29T00:06:47;10.50;99.90
7196;DHT22;3639;51.308;5.624;2022-12-29T00:09:15;10.50;99.90
7196;DHT22;3639;51.308;5.624;2022-12-29T00:11:40;10.50;99.90
7196;DHT22;3639;51.308;5.624;2022-12-29T00:14:08;10.50;99.90
7196;DHT22;3639;51.308;5.624;2022-12-29T00:16:52;10.50;99.90
7196;DHT22;3639;51.308;5.624;2022-12-29T00:19:18;10.50;99.90
7196;DHT22;3639;51.308;5.624;2022-12-29T00:22:03;10.50;99.90
7196;DHT22;3639;51.308;5.624;2022-12-29T00:24:47;10.50;99.90
7196;DHT22;3639;51.308;5.624;2022-12-29T00:27:32;10.50;99.90
7196;DHT22;3639;51.308;5.624;2022-12-29T00:30:18;10.50;99.90
7196;DHT22;3639;51.308;5.624;2022-12-29T00:33:17;10.50;99.90
7196;DHT22;3639;51.308;5.624;2022-12-29T00:36:15;10.50;99.90
7196;DHT22;3639;51.308;5.624;2022-12-29T00:38:51;10.50;99.90
7196;DHT22;3639;51.308;5.624;2022-12-29T00:41:37;10.60;99.90
7196;DHT22;3639;51.308;5.624;2022-12-29T00:44:21;10.60;99.90
7196;DHT22;3639;51.308;5.624;2022-12-29T00:46:47;10.60;99.90
7196;DHT22;3639;51.308;5.624;2022-12-29T00:49:14;10.60;99.90
7196;DHT22;3639;51.308;5.624;2022-12-29T00:52:06;10.70;99.90
7196;DHT22;3639;51.308;5.624;2022-12-29T00:54:35;10.70;99.90
7196;DHT22;3639;51.308;5.624;2022-12-29T00:57:02;10.70;99.90
7196;DHT22;3639;51.308;5.624;2022-12-29T00:59:28;10.70;99.90
7196;DHT22;3639;51.308;5.624;2022-12-29T01:01:54;10.70;99.90
7196;DHT22;3639;51.308;5.624;2022-12-29T01:04:23;10.70;99.90
7196;DHT22;3639;51.308;5.624;2022-12-29T01:06:49;10.70;99.90
7196;DHT22;3639;51.308;5.624;2022-12-29T01:09:16;10.80;99.90
7196;DHT22;3639;51.308;5.624;2022-12-29T01:12:00;10.80;99.90
7196;DHT22;3639;51.308;5.624;2022-12-29T01:14:26;10.80;99.90
7196;DHT22;3639;51.308;5.624;2022-12-29T01:16:52;10.80;99.90
7196;DHT22;3639;51.308;5.624;2022-12-29T01:19:18;10.90;99.90
7196;DHT22;3639;51.308;5.624;2022-12-29T01:21:44;10.80;99.90
7196;DHT22;3639;51.308;5.624;2022-12-29T01:24:10;10.80;99.90
7196;DHT22;3639;51.308;5.624;2022-12-29T01:26:35;10.90;99.90
7196;DHT22;3639;51.308;5.624;2022-12-29T01:29:01;10.90;99.90
7196;DHT22;3639;51.308;5.624;2022-12-29T01:31:26;10.90;99.90
7196;DHT22;3639;51.308;5.624;2022-12-29T01:33:52;10.90;99.90
7196;DHT22;3639;51.308;5.624;2022-12-29T01:36:19;10.90;99.90
7196;DHT22;3639;51.308;5.624;2022-12-29T01:38:45;10.90;99.90
7196;DHT22;3639;51.308;5.624;2022-12-29T01:41:12;10.90;99.90
7196;DHT22;3639;51.308;5.624;2022-12-29T01:43:40;10.90;99.90
7196;DHT22;3639;51.308;5.624;2022-12-29T01:48:50;11.00;99.90
7196;DHT22;3639;51.308;5.624;2022-12-29T01:51:17;11.00;99.90
7196;DHT22;3639;51.308;5.624;2022-12-29T01:53:43;11.00;99.90
7196;DHT22;3639;51.308;5.624;2022-12-29T01:56:12;11.00;99.90
7196;DHT22;3639;51.308;5.624;2022-12-29T01:58:42;11.00;99.90
7196;DHT22;3639;51.308;5.624;2022-12-29T02:01:09;11.00;99.90
7196;DHT22;3639;51.308;5.624;2022-12-29T02:03:36;11.00;99.90
7196;DHT22;3639;51.308;5.624;2022-12-29T02:06:29;11.00;99.90
7196;DHT22;3639;51.308;5.624;2022-12-29T02:08:56;11.00;99.90
7196;DHT22;3639;51.308;5.624;2022-12-29T02:11:25;11.10;99.90
7196;DHT22;3639;51.308;5.624;2022-12-29T02:13:51;11.10;99.90
7196;DHT22;3639;51.308;5.624;2022-12-29T02:27:36;11.10;99.90
7196;DHT22;3639;51.308;5.624;2022-12-29T02:36:30;11.00;99.90
7196;DHT22;3639;51.308;5.624;2022-12-29T02:39:06;11.00;99.90
7196;DHT22;3639;51.308;5.624;2022-12-29T02:42:09;11.00;99.90
7196;DHT22;3639;51.308;5.624;2022-12-29T02:44:53;10.90;99.90
7196;DHT22;3639;51.308;5.624;2022-12-29T02:47:41;10.90;99.90
7196;DHT22;3639;51.308;5.624;2022-12-29T02:50:31;10.90;99.90
7196;DHT22;3639;51.308;5.624;2022-12-29T02:53:00;10.90;99.90
7196;DHT22;3639;51.308;5.624;2022-12-29T02:55:27;10.80;99.90
7196;DHT22;3639;51.308;5.624;2022-12-29T02:58:18;10.80;99.90
7196;DHT22;3639;51.308;5.624;2022-12-29T03:01:00;10.80;99.90
7196;DHT22;3639;51.308;5.624;2022-12-29T03:03:31;10.80;99.90
7196;DHT22;3639;51.308;5.624;2022-12-29T03:09:15;10.70;99.90
7196;DHT22;3639;51.308;5.624;2022-12-29T03:11:57;10.50;99.90
7196;DHT22;3639;51.308;5.624;2022-12-29T03:15:02;10.40;99.90
7196;DHT22;3639;51.308;5.624;2022-12-29T03:17:55;10.30;99.90
7196;DHT22;3639;51.308;5.624;2022-12-29T03:20:32;10.20;99.90
7196;DHT22;3639;51.308;5.624;2022-12-29T03:23:03;10.10;99.90
7196;DHT22;3639;51.308;5.624;2022-12-29T03:25:49;10.10;99.90
7196;DHT22;3639;51.308;5.624;2022-12-29T03:28:29;10.00;99.90
7196;DHT22;3639;51.308;5.624;2022-12-29T03:30:57;10.00;99.90
7196;DHT22;3639;51.308;5.624;2022-12-29T03:33:27;10.00;99.90
7196;DHT22;3639;51.308;5.624;2022-12-29T03:35:58;10.00;99.90
7196;DHT22;3639;51.308;5.624;2022-12-29T03:41:41;9.90;99.90
7196;DHT22;3639;51.308;5.624;2022-12-29T03:44:07;9.90;99.90
7196;DHT22;3639;51.308;5.624;2022-12-29T03:46:33;9.80;99.90
7196;DHT22;3639;51.308;5.624;2022-12-29T03:48:59;9.80;99.90
7196;DHT22;3639;51.308;5.624;2022-12-29T03:51:24;9.80;99.90
7196;DHT22;3639;51.308;5.624;2022-12-29T03:53:50;9.70;99.90
7196;DHT22;3639;51.308;5.624;2022-12-29T03:56:16;9.70;99.90
7196;DHT22;3639;51.308;5.624;2022-12-29T03:58:41;9.70;99.90
7196;DHT22;3639;51.308;5.624;2022-12-29T04:01:07;9.70;99.90
7196;DHT22;3639;51.308;5.624;2022-12-29T04:03:33;9.70;99.90
7196;DHT22;3639;51.308;5.624;2022-12-29T04:05:58;9.70;99.90
7196;DHT22;3639;51.308;5.624;2022-12-29T04:08:24;9.60;99.90
7196;DHT22;3639;51.308;5.624;2022-12-29T04:10:49;9.60;99.90
7196;DHT22;3639;51.308;5.624;2022-12-29T04:13:15;9.60;99.90
7196;DHT22;3639;51.308;5.624;2022-12-29T04:15:45;9.60;99.90
7196;DHT22;3639;51.308;5.624;2022-12-29T04:18:11;9.60;99.90
7196;DHT22;3639;51.308;5.624;2022-12-29T04:20:37;9.60;99.90
7196;DHT22;3639;51.308;5.624;2022-12-29T04:23:21;9.60;99.90
7196;DHT22;3639;51.308;5.624;2022-12-29T04:25:47;9.50;99.90
7196;DHT22;3639;51.308;5.624;2022-12-29T04:28:14;9.50;99.90
7196;DHT22;3639;51.308;5.624;2022-12-29T04:30:39;9.50;99.90
7196;DHT22;3639;51.308;5.624;2022-12-29T04:33:06;9.50;99.90
7196;DHT22;3639;51.308;5.624;2022-12-29T04:35:32;9.50;99.90
7196;DHT22;3639;51.308;5.624;2022-12-29T04:37:57;9.40;99.90
7196;DHT22;3639;51.308;5.624;2022-12-29T04:40:23;9.40;99.90
7196;DHT22;3639;51.308;5.624;2022-12-29T04:42:50;9.40;99.90
7196;DHT22;3639;51.308;5.624;2022-12-29T04:45:16;9.30;99.90
7196;DHT22;3639;51.308;5.624;2022-12-29T04:47:42;9.30;99.90
7196;DHT22;3639;51.308;5.624;2022-12-29T04:50:08;9.20;99.90
7196;DHT22;3639;51.308;5.624;2022-12-29T04:52:34;9.20;99.90
7196;DHT22;3639;51.308;5.624;2022-12-29T04:54:59;9.20;99.90
7196;DHT22;3639;51.308;5.624;2022-12-29T04:57:26;9.20;99.90
7196;DHT22;3639;51.308;5.624;2022-12-29T04:59:51;9.20;99.90
7196;DHT22;3639;51.308;5.624;2022-12-29T05:02:17;9.10;99.90
7196;DHT22;3639;51.308;5.624;2022-12-29T05:04:43;9.10;99.90
7196;DHT22;3639;51.308;5.624;2022-12-29T05:07:08;9.10;99.90
7196;DHT22;3639;51.308;5.624;2022-12-29T05:09:34;9.10;99.90
7196;DHT22;3639;51.308;5.624;2022-12-29T05:11:59;9.10;99.90
7196;DHT22;3639;51.308;5.624;2022-12-29T05:14:25;9.10;99.90
7196;DHT22;3639;51.308;5.624;2022-12-29T05:16:51;9.10;99.90
7196;DHT22;3639;51.308;5.624;2022-12-29T05:19:17;9.10;99.90
7196;DHT22;3639;51.308;5.624;2022-12-29T05:21:43;9.10;99.90
7196;DHT22;3639;51.308;5.624;2022-12-29T05:24:08;9.20;99.90
7196;DHT22;3639;51.308;5.624;2022-12-29T05:26:34;9.20;99.90
7196;DHT22;3639;51.308;5.624;2022-12-29T05:29:00;9.20;99.90
7196;DHT22;3639;51.308;5.624;2022-12-29T05:31:26;9.20;99.90
7196;DHT22;3639;51.308;5.624;2022-12-29T05:33:52;9.20;99.90
7196;DHT22;3639;51.308;5.624;2022-12-29T05:36:18;9.30;99.90
7196;DHT22;3639;51.308;5.624;2022-12-29T05:38:44;9.30;99.90
7196;DHT22;3639;51.308;5.624;2022-12-29T05:41:09;9.40;99.90
7196;DHT22;3639;51.308;5.624;2022-12-29T05:43:35;9.40;99.90
7196;DHT22;3639;51.308;5.624;2022-12-29T05:46:01;9.40;99.90
7196;DHT22;3639;51.308;5.624;2022-12-29T05:48:27;9.40;99.90
7196;DHT22;3639;51.308;5.624;2022-12-29T05:50:52;9.40;99.90
7196;DHT22;3639;51.308;5.624;2022-12-29T05:53:18;9.40;99.90
7196;DHT22;3639;51.308;5.624;2022-12-29T05:55:46;9.40;99.90
7196;DHT22;3639;51.308;5.624;2022-12-29T05:58:12;9.50;99.90
7196;DHT22;3639;51.308;5.624;2022-12-29T06:00:38;9.60;99.90
7196;DHT22;3639;51.308;5.624;2022-12-29T06:03:04;9.60;99.90
7196;DHT22;3639;51.308;5.624;2022-12-29T06:05:30;9.60;99.90
7196;DHT22;3639;51.308;5.624;2022-12-29T06:07:55;9.60;99.90
7196;DHT22;3639;51.308;5.624;2022-12-29T06:10:21;9.60;99.90
7196;DHT22;3639;51.308;5.624;2022-12-29T06:12:47;9.50;99.90
7196;DHT22;3639;51.308;5.624;2022-12-29T06:15:13;9.50;99.90
7196;DHT22;3639;51.308;5.624;2022-12-29T06:17:39;9.50;99.90
7196;DHT22;3639;51.308;5.624;2022-12-29T06:20:05;9.50;99.90
7196;DHT22;3639;51.308;5.624;2022-12-29T06:22:31;9.50;99.90
7196;DHT22;3639;51.308;5.624;2022-12-29T06:24:56;9.50;99.90
7196;DHT22;3639;51.308;5.624;2022-12-29T06:27:22;9.50;99.90
7196;DHT22;3639;51.308;5.624;2022-12-29T06:29:48;9.60;99.90
7196;DHT22;3639;51.308;5.624;2022-12-29T06:32:15;9.60;99.90
7196;DHT22;3639;51.308;5.624;2022-12-29T06:34:41;9.60;99.90
7196;DHT22;3639;51.308;5.624;2022-12-29T06:37:06;9.60;99.90
7196;DHT22;3639;51.308;5.624;2022-12-29T06:39:32;9.60;99.90
7196;DHT22;3639;51.308;5.624;2022-12-29T06:41:58;9.70;99.90
7196;DHT22;3639;51.308;5.624;2022-12-29T06:44:23;9.80;99.90
7196;DHT22;3639;51.308;5.624;2022-12-29T06:46:49;9.80;99.90
7196;DHT22;3639;51.308;5.624;2022-12-29T06:49:16;9.80;99.90
7196;DHT22;3639;51.308;5.624;2022-12-29T06:51:42;9.70;99.90
7196;DHT22;3639;51.308;5.624;2022-12-29T06:54:08;9.70;99.90
7196;DHT22;3639;51.308;5.624;2022-12-29T06:56:34;9.80;99.90
7196;DHT22;3639;51.308;5.624;2022-12-29T06:58:59;9.80;99.90
7196;DHT22;3639;51.308;5.624;2022-12-29T07:01:28;9.80;99.90
7196;DHT22;3639;51.308;5.624;2022-12-29T07:03:54;9.80;99.90
7196;DHT22;3639;51.308;5.624;2022-12-29T07:06:20;9.80;99.90
7196;DHT22;3639;51.308;5.624;2022-12-29T07:08:46;9.90;99.90
7196;DHT22;3639;51.308;5.624;2022-12-29T07:11:11;9.90;99.90
7196;DHT22;3639;51.308;5.624;2022-12-29T07:13:37;9.80;99.90
7196;DHT22;3639;51.308;5.624;2022-12-29T07:16:09;9.80;99.90
7196;DHT22;3639;51.308;5.624;2022-12-29T07:18:35;9.70;99.90
7196;DHT22;3639;51.308;5.624;2022-12-29T07:21:01;9.80;99.90
7196;DHT22;3639;51.308;5.624;2022-12-29T07:23:27;10.00;99.90
7196;DHT22;3639;51.308;5.624;2022-12-29T07:26:04;10.10;99.90
7196;DHT22;3639;51.308;5.624;2022-12-29T07:28:30;10.10;99.90
7196;DHT22;3639;51.308;5.624;2022-12-29T07:30:56;10.10;99.90
7196;DHT22;3639;51.308;5.624;2022-12-29T07:33:22;10.10;99.90
7196;DHT22;3639;51.308;5.624;2022-12-29T07:35:47;10.20;99.90
7196;DHT22;3639;51.308;5.624;2022-12-29T07:38:13;10.30;99.90
7196;DHT22;3639;51.308;5.624;2022-12-29T07:40:39;10.30;99.90
7196;DHT22;3639;51.308;5.624;2022-12-29T07:43:04;10.20;99.90
7196;DHT22;3639;51.308;5.624;2022-12-29T07:45:30;10.30;99.90
7196;DHT22;3639;51.308;5.624;2022-12-29T07:47:56;10.40;99.90
7196;DHT22;3639;51.308;5.624;2022-12-29T07:50:21;10.50;99.90
7196;DHT22;3639;51.308;5.624;2022-12-29T07:52:47;10.50;99.90
7196;DHT22;3639;51.308;5.624;2022-12-29T07:55:14;10.50;99.90
7196;DHT22;3639;51.308;5.624;2022-12-29T07:57:39;10.50;99.90
7196;DHT22;3639;51.308;5.624;2022-12-29T08:00:06;10.50;99.90
7196;DHT22;3639;51.308;5.624;2022-12-29T08:02:31;10.50;99.90
7196;DHT22;3639;51.308;5.624;2022-12-29T08:04:57;10.50;99.90
7196;DHT22;3639;51.308;5.624;2022-12-29T08:07:22;10.50;99.90
7196;DHT22;3639;51.308;5.624;2022-12-29T08:09:48;10.50;99.90
7196;DHT22;3639;51.308;5.624;2022-12-29T08:12:14;10.50;99.90
7196;DHT22;3639;51.308;5.624;2022-12-29T08:14:39;10.50;99.90
7196;DHT22;3639;51.308;5.624;2022-12-29T08:17:05;10.50;99.90
7196;DHT22;3639;51.308;5.624;2022-12-29T08:19:30;10.50;99.90
7196;DHT22;3639;51.308;5.624;2022-12-29T08:21:56;10.50;99.90
7196;DHT22;3639;51.308;5.624;2022-12-29T08:24:22;10.50;99.90
7196;DHT22;3639;51.308;5.624;2022-12-29T08:26:47;10.60;99.90
7196;DHT22;3639;51.308;5.624;2022-12-29T08:29:13;10.60;99.90
7196;DHT22;3639;51.308;5.624;2022-12-29T08:31:39;10.60;99.90
7196;DHT22;3639;51.308;5.624;2022-12-29T08:34:04;10.60;99.90
7196;DHT22;3639;51.308;5.624;2022-12-29T08:36:31;10.60;99.90
7196;DHT22;3639;51.308;5.624;2022-12-29T08:38:57;10.70;99.90
7196;DHT22;3639;51.308;5.624;2022-12-29T08:41:23;10.60;99.90
7196;DHT22;3639;51.308;5.624;2022-12-29T08:43:49;10.60;99.90
7196;DHT22;3639;51.308;5.624;2022-12-29T08:46:16;10.50;99.90
7196;DHT22;3639;51.308;5.624;2022-12-29T08:48:42;10.50;99.90
7196;DHT22;3639;51.308;5.624;2022-12-29T08:51:08;10.50;99.90
7196;DHT22;3639;51.308;5.624;2022-12-29T08:53:34;10.60;99.90
7196;DHT22;3639;51.308;5.624;2022-12-29T08:56:00;10.60;99.90
7196;DHT22;3639;51.308;5.624;2022-12-29T08:58:26;10.60;99.90
7196;DHT22;3639;51.308;5.624;2022-12-29T09:00:54;10.60;99.90
7196;DHT22;3639;51.308;5.624;2022-12-29T09:03:20;10.70;99.90
7196;DHT22;3639;51.308;5.624;2022-12-29T09:05:53;10.70;99.90
7196;DHT22;3639;51.308;5.624;2022-12-29T09:08:19;10.70;99.90
7196;DHT22;3639;51.308;5.624;2022-12-29T09:10:45;10.70;99.90
7196;DHT22;3639;51.308;5.624;2022-12-29T09:13:12;10.80;99.90
7196;DHT22;3639;51.308;5.624;2022-12-29T09:15:38;10.70;99.90
7196;DHT22;3639;51.308;5.624;2022-12-29T09:18:04;10.70;99.90
7196;DHT22;3639;51.308;5.624;2022-12-29T09:20:30;10.70;99.90
7196;DHT22;3639;51.308;5.624;2022-12-29T09:22:56;10.70;99.90
7196;DHT22;3639;51.308;5.624;2022-12-29T09:25:21;10.70;99.90
7196;DHT22;3639;51.308;5.624;2022-12-29T09:27:53;10.70;99.90
7196;DHT22;3639;51.308;5.624;2022-12-29T09:30:20;10.70;99.90
7196;DHT22;3639;51.308;5.624;2022-12-29T09:32:46;10.70;99.90
7196;DHT22;3639;51.308;5.624;2022-12-29T09:35:13;10.80;99.90
7196;DHT22;3639;51.308;5.624;2022-12-29T09:37:39;10.80;99.90
7196;DHT22;3639;51.308;5.624;2022-12-29T09:40:06;10.80;99.90
7196;DHT22;3639;51.308;5.624;2022-12-29T09:42:44;10.80;99.90
7196;DHT22;3639;51.308;5.624;2022-12-29T09:45:23;10.80;99.90
7196;DHT22;3639;51.308;5.624;2022-12-29T09:47:51;10.80;99.90
7196;DHT22;3639;51.308;5.624;2022-12-29T09:50:30;11.00;99.90
7196;DHT22;3639;51.308;5.624;2022-12-29T09:53:21;11.00;99.90
7196;DHT22;3639;51.308;5.624;2022-12-29T09:55:53;11.10;99.90
7196;DHT22;3639;51.308;5.624;2022-12-29T10:01:21;11.40;99.90
7196;DHT22;3639;51.308;5.624;2022-12-29T10:03:54;11.50;99.90
7196;DHT22;3639;51.308;5.624;2022-12-29T10:06:35;11.70;99.90
7196;DHT22;3639;51.308;5.624;2022-12-29T10:14:58;11.70;99.90
7196;DHT22;3639;51.308;5.624;2022-12-29T10:17:46;11.60;99.90
7196;DHT22;3639;51.308;5.624;2022-12-29T10:20:46;11.50;99.90
7196;DHT22;3639;51.308;5.624;2022-12-29T10:25:44;11.30;99.90
7196;DHT22;3639;51.308;5.624;2022-12-29T10:28:21;11.20;99.90
7196;DHT22;3639;51.308;5.624;2022-12-29T10:30:48;11.10;99.90
7196;DHT22;3639;51.308;5.624;2022-12-29T10:33:19;11.00;99.90
7196;DHT22;3639;51.308;5.624;2022-12-29T10:35:49;11.00;99.90
7196;DHT22;3639;51.308;5.624;2022-12-29T10:41:21;11.10;99.90
7196;DHT22;3639;51.308;5.624;2022-12-29T10:43:51;11.10;99.90
7196;DHT22;3639;51.308;5.624;2022-12-29T10:46:24;11.20;99.90
7196;DHT22;3639;51.308;5.624;2022-12-29T10:48:50;11.20;99.90
7196;DHT22;3639;51.308;5.624;2022-12-29T10:51:26;11.30;99.90
7196;DHT22;3639;51.308;5.624;2022-12-29T10:54:05;11.40;99.90
7196;DHT22;3639;51.308;5.624;2022-12-29T10:56:39;11.40;99.90
7196;DHT22;3639;51.308;5.624;2022-12-29T10:59:35;11.40;99.90
7196;DHT22;3639;51.308;5.624;2022-12-29T11:07:21;11.30;99.90
7196;DHT22;3639;51.308;5.624;2022-12-29T11:09:47;11.30;99.90
7196;DHT22;3639;51.308;5.624;2022-12-29T11:12:26;11.30;99.90
7196;DHT22;3639;51.308;5.624;2022-12-29T11:17:56;11.40;99.90
7196;DHT22;3639;51.308;5.624;2022-12-29T11:20:37;11.30;99.90
7196;DHT22;3639;51.308;5.624;2022-12-29T11:23:06;11.40;99.90
7196;DHT22;3639;51.308;5.624;2022-12-29T11:25:45;11.40;99.90
7196;DHT22;3639;51.308;5.624;2022-12-29T11:28:15;11.40;99.90
7196;DHT22;3639;51.308;5.624;2022-12-29T11:30:42;11.30;99.90
7196;DHT22;3639;51.308;5.624;2022-12-29T11:33:08;11.20;99.90
7196;DHT22;3639;51.308;5.624;2022-12-29T11:35:43;11.10;99.90
7196;DHT22;3639;51.308;5.624;2022-12-29T11:38:23;11.10;99.90
7196;DHT22;3639;51.308;5.624;2022-12-29T11:40:50;11.10;99.90
7196;DHT22;3639;51.308;5.624;2022-12-29T11:45:55;11.10;99.90
7196;DHT22;3639;51.308;5.624;2022-12-29T11:48:22;11.10;99.90
7196;DHT22;3639;51.308;5.624;2022-12-29T11:50:56;11.20;99.90
7196;DHT22;3639;51.308;5.624;2022-12-29T11:53:27;11.20;99.90
7196;DHT22;3639;51.308;5.624;2022-12-29T11:56:02;11.20;99.90
7196;DHT22;3639;51.308;5.624;2022-12-29T11:58:31;11.30;99.90
7196;DHT22;3639;51.308;5.624;2022-12-29T12:01:00;11.40;99.90
7196;DHT22;3639;51.308;5.624;2022-12-29T12:03:29;11.40;99.90
7196;DHT22;3639;51.308;5.624;2022-12-29T12:06:00;11.50;99.90
7196;DHT22;3639;51.308;5.624;2022-12-29T12:08:47;11.50;99.90
7196;DHT22;3639;51.308;5.624;2022-12-29T12:11:20;11.50;99.90
7196;DHT22;3639;51.308;5.624;2022-12-29T12:16:22;11.60;99.90
7196;DHT22;3639;51.308;5.624;2022-12-29T12:19:02;11.50;99.90
7196;DHT22;3639;51.308;5.624;2022-12-29T12:21:42;11.40;99.90
7196;DHT22;3639;51.308;5.624;2022-12-29T12:32:52;11.20;99.90
7196;DHT22;3639;51.308;5.624;2022-12-29T12:58:02;10.90;99.90
7196;DHT22;3639;51.308;5.624;2022-12-29T13:00:43;10.90;99.90
7196;DHT22;3639;51.308;5.624;2022-12-29T13:17:40;10.70;99.90
7196;DHT22;3639;51.308;5.624;2022-12-29T13:20:19;10.80;99.90
7196;DHT22;3639;51.308;5.624;2022-12-29T13:25:43;10.70;99.90
7196;DHT22;3639;51.308;5.624;2022-12-29T13:29:03;10.80;99.90
7196;DHT22;3639;51.308;5.624;2022-12-29T13:36:58;10.90;99.90
7196;DHT22;3639;51.308;5.624;2022-12-29T13:41:57;11.00;99.90
7196;DHT22;3639;51.308;5.624;2022-12-29T13:44:33;11.00;99.90
7196;DHT22;3639;51.308;5.624;2022-12-29T13:47:04;11.00;99.90
7196;DHT22;3639;51.308;5.624;2022-12-29T13:49:33;11.10;99.90
7196;DHT22;3639;51.308;5.624;2022-12-29T14:00:48;10.90;99.90
7196;DHT22;3639;51.308;5.624;2022-12-29T14:08:42;10.80;99.90
7196;DHT22;3639;51.308;5.624;2022-12-29T14:11:15;10.80;99.90
7196;DHT22;3639;51.308;5.624;2022-12-29T14:13:43;10.90;99.90
7196;DHT22;3639;51.308;5.624;2022-12-29T14:18:51;10.80;99.90
7196;DHT22;3639;51.308;5.624;2022-12-29T14:23:44;10.60;99.90
7196;DHT22;3639;51.308;5.624;2022-12-29T14:26:12;10.50;99.90
7196;DHT22;3639;51.308;5.624;2022-12-29T14:28:46;10.40;99.90
7196;DHT22;3639;51.308;5.624;2022-12-29T14:36:42;10.50;99.90
7196;DHT22;3639;51.308;5.624;2022-12-29T14:39:42;10.40;99.90
7196;DHT22;3639;51.308;5.624;2022-12-29T14:44:57;10.40;99.90
7196;DHT22;3639;51.308;5.624;2022-12-29T14:47:36;10.40;99.90
7196;DHT22;3639;51.308;5.624;2022-12-29T14:50:37;10.40;99.90
7196;DHT22;3639;51.308;5.624;2022-12-29T14:53:05;10.30;99.90
7196;DHT22;3639;51.308;5.624;2022-12-29T14:55:38;10.20;99.90
7196;DHT22;3639;51.308;5.624;2022-12-29T14:58:07;10.30;99.90
7196;DHT22;3639;51.308;5.624;2022-12-29T15:00:38;10.30;99.90
7196;DHT22;3639;51.308;5.624;2022-12-29T15:03:22;10.40;99.90
7196;DHT22;3639;51.308;5.624;2022-12-29T15:05:50;10.30;99.90
7196;DHT22;3639;51.308;5.624;2022-12-29T15:08:22;10.30;99.90
7196;DHT22;3639;51.308;5.624;2022-12-29T15:10:55;10.40;99.90
7196;DHT22;3639;51.308;5.624;2022-12-29T15:13:35;10.40;99.90
7196;DHT22;3639;51.308;5.624;2022-12-29T15:16:00;10.40;99.90
7196;DHT22;3639;51.308;5.624;2022-12-29T15:18:33;10.40;99.90
7196;DHT22;3639;51.308;5.624;2022-12-29T15:21:02;10.40;99.90
7196;DHT22;3639;51.308;5.624;2022-12-29T15:23:31;10.30;99.90
7196;DHT22;3639;51.308;5.624;2022-12-29T15:26:03;10.30;99.90
7196;DHT22;3639;51.308;5.624;2022-12-29T15:31:06;10.00;99.90
7196;DHT22;3639;51.308;5.624;2022-12-29T15:33:38;9.80;99.90
7196;DHT22;3639;51.308;5.624;2022-12-29T15:36:14;9.70;99.90
7196;DHT22;3639;51.308;5.624;2022-12-29T15:38:43;9.50;99.90
7196;DHT22;3639;51.308;5.624;2022-12-29T15:41:45;9.40;99.90
7196;DHT22;3639;51.308;5.624;2022-12-29T15:46:54;9.20;99.90
7196;DHT22;3639;51.308;5.624;2022-12-29T15:49:20;9.20;99.90
7196;DHT22;3639;51.308;5.624;2022-12-29T15:51:46;9.10;99.90
7196;DHT22;3639;51.308;5.624;2022-12-29T15:54:17;9.00;99.90
7196;DHT22;3639;51.308;5.624;2022-12-29T15:56:43;8.80;99.90
7196;DHT22;3639;51.308;5.624;2022-12-29T15:59:31;8.70;99.90
7196;DHT22;3639;51.308;5.624;2022-12-29T16:01:59;8.70;99.90
7196;DHT22;3639;51.308;5.624;2022-12-29T16:04:30;8.60;99.90
7196;DHT22;3639;51.308;5.624;2022-12-29T16:07:02;8.50;99.90
7196;DHT22;3639;51.308;5.624;2022-12-29T16:09:35;8.50;99.90
7196;DHT22;3639;51.308;5.624;2022-12-29T16:12:31;8.50;99.90
7196;DHT22;3639;51.308;5.624;2022-12-29T16:15:00;8.40;99.90
7196;DHT22;3639;51.308;5.624;2022-12-29T16:17:30;8.50;99.90
7196;DHT22;3639;51.308;5.624;2022-12-29T16:20:19;8.40;99.90
7196;DHT22;3639;51.308;5.624;2022-12-29T16:22:54;8.40;99.90
7196;DHT22;3639;51.308;5.624;2022-12-29T16:25:34;8.40;99.90
7196;DHT22;3639;51.308;5.624;2022-12-29T16:28:21;8.40;99.90
7196;DHT22;3639;51.308;5.624;2022-12-29T16:30:58;8.40;99.90
7196;DHT22;3639;51.308;5.624;2022-12-29T16:33:40;8.40;99.90
7196;DHT22;3639;51.308;5.624;2022-12-29T16:36:33;8.40;99.90
7196;DHT22;3639;51.308;5.624;2022-12-29T16:41:52;8.40;99.90
7196;DHT22;3639;51.308;5.624;2022-12-29T16:44:25;8.30;99.90
7196;DHT22;3639;51.308;5.624;2022-12-29T16:49:38;8.10;99.90
7196;DHT22;3639;51.308;5.624;2022-12-29T16:54:52;8.00;99.90
7196;DHT22;3639;51.308;5.624;2022-12-29T16:57:27;8.00;99.90
7196;DHT22;3639;51.308;5.624;2022-12-29T16:59:57;7.90;99.90
7196;DHT22;3639;51.308;5.624;2022-12-29T17:02:26;8.00;99.90
7196;DHT22;3639;51.308;5.624;2022-12-29T17:04:53;7.90;99.90
7196;DHT22;3639;51.308;5.624;2022-12-29T17:07:21;8.00;99.90
7196;DHT22;3639;51.308;5.624;2022-12-29T17:09:47;8.00;99.90
7196;DHT22;3639;51.308;5.624;2022-12-29T17:12:17;8.00;99.90
7196;DHT22;3639;51.308;5.624;2022-12-29T17:14:48;7.90;99.90
7196;DHT22;3639;51.308;5.624;2022-12-29T17:17:38;7.90;99.90
7196;DHT22;3639;51.308;5.624;2022-12-29T17:20:09;7.80;99.90
7196;DHT22;3639;51.308;5.624;2022-12-29T17:22:39;7.80;99.90
7196;DHT22;3639;51.308;5.624;2022-12-29T17:25:05;7.80;99.90
7196;DHT22;3639;51.308;5.624;2022-12-29T17:27:35;7.60;99.90
7196;DHT22;3639;51.308;5.624;2022-12-29T17:32:35;7.60;99.90
7196;DHT22;3639;51.308;5.624;2022-12-29T17:35:01;7.60;99.90
7196;DHT22;3639;51.308;5.624;2022-12-29T17:37:30;7.60;99.90
7196;DHT22;3639;51.308;5.624;2022-12-29T17:39:56;7.60;99.90
7196;DHT22;3639;51.308;5.624;2022-12-29T17:42:22;7.60;99.90
7196;DHT22;3639;51.308;5.624;2022-12-29T17:44:47;7.60;99.90
7196;DHT22;3639;51.308;5.624;2022-12-29T17:47:14;7.50;99.90
7196;DHT22;3639;51.308;5.624;2022-12-29T17:49:40;7.40;99.90
7196;DHT22;3639;51.308;5.624;2022-12-29T17:52:13;7.40;99.90
7196;DHT22;3639;51.308;5.624;2022-12-29T17:54:58;7.40;99.90
7196;DHT22;3639;51.308;5.624;2022-12-29T17:57:25;7.40;99.90
7196;DHT22;3639;51.308;5.624;2022-12-29T17:59:50;7.40;99.90
7196;DHT22;3639;51.308;5.624;2022-12-29T18:02:28;7.30;99.90
7196;DHT22;3639;51.308;5.624;2022-12-29T18:04:55;7.30;99.90
7196;DHT22;3639;51.308;5.624;2022-12-29T18:07:21;7.30;99.90
7196;DHT22;3639;51.308;5.624;2022-12-29T18:09:47;7.20;99.90
7196;DHT22;3639;51.308;5.624;2022-12-29T18:15:01;7.20;99.90
7196;DHT22;3639;51.308;5.624;2022-12-29T18:17:27;7.20;99.90
7196;DHT22;3639;51.308;5.624;2022-12-29T18:19:52;7.20;99.90
7196;DHT22;3639;51.308;5.624;2022-12-29T18:22:21;7.20;99.90
7196;DHT22;3639;51.308;5.624;2022-12-29T18:24:47;7.10;99.90
7196;DHT22;3639;51.308;5.624;2022-12-29T18:27:14;7.10;99.90
7196;DHT22;3639;51.308;5.624;2022-12-29T18:29:40;7.10;99.90
7196;DHT22;3639;51.308;5.624;2022-12-29T18:32:12;7.00;99.90
7196;DHT22;3639;51.308;5.624;2022-12-29T18:34:40;7.00;99.90
7196;DHT22;3639;51.308;5.624;2022-12-29T18:37:05;7.00;99.90
7196;DHT22;3639;51.308;5.624;2022-12-29T18:39:31;7.00;99.90
7196;DHT22;3639;51.308;5.624;2022-12-29T18:41:57;7.00;99.90
7196;DHT22;3639;51.308;5.624;2022-12-29T18:44:22;6.90;99.90
7196;DHT22;3639;51.308;5.624;2022-12-29T18:46:49;7.00;99.90
7196;DHT22;3639;51.308;5.624;2022-12-29T18:49:15;7.00;99.90
7196;DHT22;3639;51.308;5.624;2022-12-29T18:51:41;7.00;99.90
7196;DHT22;3639;51.308;5.624;2022-12-29T18:54:21;7.00;99.90
7196;DHT22;3639;51.308;5.624;2022-12-29T18:56:47;7.00;99.90
7196;DHT22;3639;51.308;5.624;2022-12-29T18:59:12;7.00;99.90
7196;DHT22;3639;51.308;5.624;2022-12-29T19:01:38;7.00;99.90
7196;DHT22;3639;51.308;5.624;2022-12-29T19:04:03;7.00;99.90
7196;DHT22;3639;51.308;5.624;2022-12-29T19:06:29;7.00;99.90
7196;DHT22;3639;51.308;5.624;2022-12-29T19:08:55;7.00;99.90